DLH179 EKCH-EDDH
Flight info
| Callsign | DLH179 |
|---|---|
| Flight time | 0h 43m |
| Altitude | 24000 |
| Route | NEXEN T503 MICOS N850 BOGMU BOGMU5A |
| Aircraft | A320/M-SDE3FGHIRWY/LB1 |
Departure
| Time | 2026-04-30 20:26 |
|---|---|
| Airport | Copenhagen Kastrup Airport (EKCH) |
Arrival
| Time | 2026-04-30 21:10 |
|---|---|
| Airport | Hamburg Helmut Schmidt Airport (EDDH) |
| Time | Latitude | Longitude | Altitude | Speed | Heading |
|---|---|---|---|---|---|
| 2026-04-30 19:57 | 55.62895 | 12.63937 | 24 ft | 0 kts | 12° |
| 2026-04-30 20:15 | 55.62874 | 12.63930 | 24 ft | 4 kts | 1° |
| 2026-04-30 20:15 | 55.62853 | 12.63934 | 27 ft | 4 kts | 0° |
| 2026-04-30 20:16 | 55.62836 | 12.63919 | 27 ft | 4 kts | 87° |
| 2026-04-30 20:16 | 55.62839 | 12.63881 | 26 ft | 1 kts | 104° |
| 2026-04-30 20:19 | 55.62833 | 12.63910 | 26 ft | 8 kts | 116° |
| 2026-04-30 20:19 | 55.62762 | 12.63937 | 24 ft | 13 kts | 206° |
| 2026-04-30 20:19 | 55.62688 | 12.63859 | 24 ft | 12 kts | 200° |
| 2026-04-30 20:20 | 55.62628 | 12.63925 | 24 ft | 11 kts | 125° |
| 2026-04-30 20:20 | 55.62576 | 12.64067 | 24 ft | 16 kts | 123° |
| 2026-04-30 20:20 | 55.62518 | 12.64221 | 24 ft | 14 kts | 123° |
| 2026-04-30 20:20 | 55.62462 | 12.64358 | 24 ft | 13 kts | 127° |
| 2026-04-30 20:21 | 55.62406 | 12.64489 | 24 ft | 15 kts | 125° |
| 2026-04-30 20:21 | 55.62341 | 12.64665 | 24 ft | 19 kts | 123° |
| 2026-04-30 20:21 | 55.62264 | 12.64873 | 25 ft | 21 kts | 123° |
| 2026-04-30 20:21 | 55.62194 | 12.65062 | 24 ft | 13 kts | 123° |
| 2026-04-30 20:22 | 55.62125 | 12.65079 | 24 ft | 10 kts | 207° |
| 2026-04-30 20:22 | 55.62060 | 12.65006 | 25 ft | 13 kts | 213° |
| 2026-04-30 20:22 | 55.61970 | 12.64901 | 24 ft | 18 kts | 213° |
| 2026-04-30 20:22 | 55.61861 | 12.64777 | 24 ft | 19 kts | 213° |
| 2026-04-30 20:23 | 55.61743 | 12.64641 | 24 ft | 21 kts | 213° |
| 2026-04-30 20:23 | 55.61615 | 12.64494 | 24 ft | 23 kts | 213° |
| 2026-04-30 20:23 | 55.61474 | 12.64332 | 25 ft | 25 kts | 213° |
| 2026-04-30 20:23 | 55.61325 | 12.64161 | 24 ft | 26 kts | 212° |
| 2026-04-30 20:24 | 55.61171 | 12.63983 | 25 ft | 27 kts | 213° |
| 2026-04-30 20:24 | 55.61007 | 12.63794 | 24 ft | 29 kts | 213° |
| 2026-04-30 20:24 | 55.60874 | 12.63643 | 26 ft | 19 kts | 212° |
| 2026-04-30 20:24 | 55.60786 | 12.63606 | 25 ft | 11 kts | 152° |
| 2026-04-30 20:25 | 55.60688 | 12.63814 | 25 ft | 14 kts | 115° |
| 2026-04-30 20:25 | 55.60723 | 12.63939 | 27 ft | 11 kts | 42° |
| 2026-04-30 20:26 | 55.61234 | 12.64729 | 28 ft | 113 kts | 41° |
| 2026-04-30 20:26 | 55.62837 | 12.67220 | 614 ft | 171 kts | 39° |
| 2026-04-30 20:26 | 55.63747 | 12.68636 | 1330 ft | 179 kts | 37° |
| 2026-04-30 20:27 | 55.65895 | 12.71944 | 2137 ft | 231 kts | 37° |
| 2026-04-30 20:27 | 55.68529 | 12.75877 | 3703 ft | 256 kts | 40° |
| 2026-04-30 20:28 | 55.70054 | 12.81466 | 5648 ft | 266 kts | 88° |
| 2026-04-30 20:28 | 55.68532 | 12.87394 | 7563 ft | 282 kts | 138° |
| 2026-04-30 20:29 | 55.64861 | 12.90269 | 9366 ft | 295 kts | 160° |
| 2026-04-30 20:30 | 55.58547 | 12.89194 | 11066 ft | 346 kts | 211° |
| 2026-04-30 20:30 | 55.53085 | 12.79870 | 12874 ft | 376 kts | 226° |
| 2026-04-30 20:31 | 55.47701 | 12.69403 | 14954 ft | 392 kts | 231° |
| 2026-04-30 20:32 | 55.42486 | 12.58160 | 17004 ft | 402 kts | 231° |
| 2026-04-30 20:32 | 55.38878 | 12.50552 | 18341 ft | 409 kts | 231° |
| 2026-04-30 20:33 | 55.37032 | 12.46723 | 18939 ft | 412 kts | 231° |
| 2026-04-30 20:33 | 55.33294 | 12.38990 | 20083 ft | 418 kts | 231° |
| 2026-04-30 20:33 | 55.31406 | 12.35088 | 20654 ft | 420 kts | 231° |
| 2026-04-30 20:34 | 55.27594 | 12.27222 | 21769 ft | 426 kts | 231° |
| 2026-04-30 20:34 | 55.23751 | 12.19320 | 22832 ft | 431 kts | 231° |
| 2026-04-30 20:35 | 55.21799 | 12.15315 | 23353 ft | 434 kts | 230° |
| 2026-04-30 20:35 | 55.19666 | 12.11552 | 23860 ft | 438 kts | 221° |
| 2026-04-30 20:35 | 55.14752 | 12.05136 | 24404 ft | 442 kts | 217° |
| 2026-04-30 20:36 | 55.12259 | 12.01956 | 24442 ft | 447 kts | 217° |
| 2026-04-30 20:36 | 55.09738 | 11.98748 | 24438 ft | 447 kts | 217° |
| 2026-04-30 20:36 | 55.04735 | 11.92398 | 24431 ft | 448 kts | 217° |
| 2026-04-30 20:37 | 55.02218 | 11.89203 | 24438 ft | 448 kts | 217° |
| 2026-04-30 20:37 | 54.99703 | 11.86006 | 24438 ft | 448 kts | 217° |
| 2026-04-30 20:37 | 54.97185 | 11.82808 | 24434 ft | 448 kts | 217° |
| 2026-04-30 20:37 | 54.94669 | 11.79624 | 24434 ft | 448 kts | 217° |
| 2026-04-30 20:38 | 54.92149 | 11.76445 | 24432 ft | 447 kts | 217° |
| 2026-04-30 20:38 | 54.89630 | 11.73274 | 24439 ft | 447 kts | 217° |
| 2026-04-30 20:38 | 54.87116 | 11.70112 | 24432 ft | 447 kts | 217° |
| 2026-04-30 20:39 | 54.82107 | 11.63825 | 24425 ft | 447 kts | 216° |
| 2026-04-30 20:39 | 54.79587 | 11.60666 | 24428 ft | 447 kts | 216° |
| 2026-04-30 20:39 | 54.77133 | 11.57378 | 24428 ft | 446 kts | 224° |
| 2026-04-30 20:40 | 54.72649 | 11.49965 | 24436 ft | 443 kts | 223° |
| 2026-04-30 20:40 | 54.70187 | 11.46756 | 24353 ft | 442 kts | 214° |
| 2026-04-30 20:40 | 54.67644 | 11.43817 | 23827 ft | 438 kts | 214° |
| 2026-04-30 20:41 | 54.62603 | 11.38113 | 22830 ft | 434 kts | 213° |
| 2026-04-30 20:41 | 54.60066 | 11.35278 | 22351 ft | 432 kts | 213° |
| 2026-04-30 20:41 | 54.57547 | 11.32468 | 21878 ft | 429 kts | 213° |
| 2026-04-30 20:41 | 54.55052 | 11.29677 | 21415 ft | 427 kts | 213° |
| 2026-04-30 20:42 | 54.52571 | 11.26890 | 20959 ft | 424 kts | 213° |
| 2026-04-30 20:42 | 54.50104 | 11.24115 | 20507 ft | 422 kts | 213° |
| 2026-04-30 20:42 | 54.45249 | 11.18658 | 19641 ft | 417 kts | 213° |
| 2026-04-30 20:43 | 54.42831 | 11.15950 | 19213 ft | 415 kts | 213° |
| 2026-04-30 20:43 | 54.40409 | 11.13244 | 18787 ft | 413 kts | 213° |
| 2026-04-30 20:43 | 54.38011 | 11.10568 | 18324 ft | 411 kts | 213° |
| 2026-04-30 20:44 | 54.33250 | 11.05278 | 17362 ft | 405 kts | 212° |
| 2026-04-30 20:44 | 54.30898 | 11.02669 | 16901 ft | 401 kts | 212° |
| 2026-04-30 20:44 | 54.26246 | 10.97512 | 16001 ft | 395 kts | 212° |
| 2026-04-30 20:45 | 54.21655 | 10.92445 | 15304 ft | 390 kts | 211° |
| 2026-04-30 20:45 | 54.19376 | 10.89935 | 14953 ft | 388 kts | 211° |
| 2026-04-30 20:45 | 54.17115 | 10.87444 | 14632 ft | 386 kts | 211° |
| 2026-04-30 20:46 | 54.10437 | 10.80096 | 13577 ft | 379 kts | 211° |
| 2026-04-30 20:46 | 54.08232 | 10.77679 | 13217 ft | 376 kts | 211° |
| 2026-04-30 20:47 | 54.03858 | 10.72901 | 12407 ft | 370 kts | 211° |
| 2026-04-30 20:47 | 54.01698 | 10.70544 | 12011 ft | 367 kts | 211° |
| 2026-04-30 20:48 | 53.97433 | 10.65886 | 11428 ft | 362 kts | 211° |
| 2026-04-30 20:48 | 53.95307 | 10.63571 | 11461 ft | 363 kts | 211° |
| 2026-04-30 20:48 | 53.93187 | 10.61268 | 11462 ft | 363 kts | 211° |
| 2026-04-30 20:48 | 53.91086 | 10.58991 | 11460 ft | 363 kts | 211° |
| 2026-04-30 20:49 | 53.88960 | 10.56688 | 11461 ft | 363 kts | 211° |
| 2026-04-30 20:49 | 53.86841 | 10.54389 | 11263 ft | 361 kts | 211° |
| 2026-04-30 20:49 | 53.84725 | 10.52097 | 11022 ft | 360 kts | 211° |
| 2026-04-30 20:50 | 53.81041 | 10.48114 | 10594 ft | 345 kts | 211° |
| 2026-04-30 20:50 | 53.79045 | 10.45958 | 10352 ft | 335 kts | 211° |
| 2026-04-30 20:50 | 53.77101 | 10.43864 | 10093 ft | 327 kts | 211° |
| 2026-04-30 20:50 | 53.75207 | 10.41831 | 9828 ft | 319 kts | 210° |
| 2026-04-30 20:51 | 53.73355 | 10.39846 | 9586 ft | 311 kts | 210° |
| 2026-04-30 20:51 | 53.70199 | 10.35383 | 9314 ft | 285 kts | 229° |
| 2026-04-30 20:51 | 53.68979 | 10.32866 | 9131 ft | 270 kts | 229° |
| 2026-04-30 20:52 | 53.67798 | 10.30450 | 8791 ft | 265 kts | 229° |
| 2026-04-30 20:52 | 53.66628 | 10.28069 | 8498 ft | 263 kts | 228° |
| 2026-04-30 20:52 | 53.64313 | 10.23351 | 7855 ft | 259 kts | 228° |
| 2026-04-30 20:53 | 53.63168 | 10.21016 | 7539 ft | 258 kts | 228° |
| 2026-04-30 20:53 | 53.62029 | 10.18699 | 7218 ft | 257 kts | 228° |
| 2026-04-30 20:53 | 53.60909 | 10.16421 | 6901 ft | 255 kts | 228° |
| 2026-04-30 20:54 | 53.58658 | 10.11855 | 6255 ft | 252 kts | 228° |
| 2026-04-30 20:54 | 53.57548 | 10.09601 | 5939 ft | 250 kts | 228° |
| 2026-04-30 20:54 | 53.56443 | 10.07360 | 5627 ft | 248 kts | 228° |
| 2026-04-30 20:55 | 53.54256 | 10.02927 | 5056 ft | 242 kts | 228° |
| 2026-04-30 20:55 | 53.53181 | 10.00756 | 5002 ft | 242 kts | 228° |
| 2026-04-30 20:55 | 53.52100 | 9.98576 | 5013 ft | 243 kts | 228° |
| 2026-04-30 20:56 | 53.49949 | 9.94237 | 5013 ft | 243 kts | 228° |
| 2026-04-30 20:56 | 53.48868 | 9.92060 | 5004 ft | 243 kts | 228° |
| 2026-04-30 20:56 | 53.46703 | 9.87700 | 5015 ft | 243 kts | 228° |
| 2026-04-30 20:57 | 53.45622 | 9.85528 | 5011 ft | 243 kts | 228° |
| 2026-04-30 20:57 | 53.44537 | 9.83352 | 5004 ft | 243 kts | 228° |
| 2026-04-30 20:57 | 53.43453 | 9.81178 | 5011 ft | 243 kts | 228° |
| 2026-04-30 20:58 | 53.41288 | 9.76847 | 5000 ft | 243 kts | 227° |
| 2026-04-30 20:58 | 53.40214 | 9.74700 | 5006 ft | 243 kts | 227° |
| 2026-04-30 20:58 | 53.39128 | 9.72538 | 4999 ft | 243 kts | 227° |
| 2026-04-30 20:58 | 53.38043 | 9.70376 | 5000 ft | 243 kts | 227° |
| 2026-04-30 20:59 | 53.35872 | 9.66048 | 4997 ft | 243 kts | 227° |
| 2026-04-30 20:59 | 53.34788 | 9.63884 | 4999 ft | 243 kts | 227° |
| 2026-04-30 21:00 | 53.32622 | 9.59561 | 4992 ft | 242 kts | 227° |
| 2026-04-30 21:00 | 53.30560 | 9.55115 | 4988 ft | 244 kts | 244° |
| 2026-04-30 21:01 | 53.30800 | 9.49690 | 4985 ft | 247 kts | 307° |
| 2026-04-30 21:01 | 53.32045 | 9.47766 | 4998 ft | 244 kts | 336° |
| 2026-04-30 21:01 | 53.35259 | 9.47819 | 4998 ft | 236 kts | 22° |
| 2026-04-30 21:02 | 53.36801 | 9.48756 | 4998 ft | 235 kts | 24° |
| 2026-04-30 21:02 | 53.38307 | 9.49798 | 4995 ft | 233 kts | 34° |
| 2026-04-30 21:02 | 53.39478 | 9.51608 | 4999 ft | 229 kts | 53° |
| 2026-04-30 21:02 | 53.40498 | 9.53650 | 5001 ft | 229 kts | 53° |
| 2026-04-30 21:03 | 53.41524 | 9.55697 | 4999 ft | 229 kts | 52° |
| 2026-04-30 21:03 | 53.42538 | 9.57714 | 4998 ft | 229 kts | 52° |
| 2026-04-30 21:03 | 53.43563 | 9.59752 | 5000 ft | 229 kts | 52° |
| 2026-04-30 21:03 | 53.44586 | 9.61789 | 5007 ft | 229 kts | 52° |
| 2026-04-30 21:04 | 53.45614 | 9.63839 | 4960 ft | 230 kts | 52° |
| 2026-04-30 21:04 | 53.46640 | 9.65885 | 4726 ft | 229 kts | 52° |
| 2026-04-30 21:04 | 53.48660 | 9.69917 | 4141 ft | 223 kts | 52° |
| 2026-04-30 21:05 | 53.49646 | 9.71888 | 3855 ft | 215 kts | 52° |
| 2026-04-30 21:05 | 53.50590 | 9.73777 | 3559 ft | 208 kts | 51° |
| 2026-04-30 21:05 | 53.51510 | 9.75619 | 3284 ft | 202 kts | 51° |
| 2026-04-30 21:05 | 53.52390 | 9.77382 | 3024 ft | 197 kts | 51° |
| 2026-04-30 21:06 | 53.53267 | 9.79142 | 2790 ft | 195 kts | 51° |
| 2026-04-30 21:06 | 53.54129 | 9.80872 | 2509 ft | 190 kts | 51° |
| 2026-04-30 21:06 | 53.54966 | 9.82553 | 2242 ft | 186 kts | 51° |
| 2026-04-30 21:06 | 53.55791 | 9.84211 | 1989 ft | 183 kts | 51° |
| 2026-04-30 21:07 | 53.56606 | 9.85850 | 1737 ft | 182 kts | 52° |
| 2026-04-30 21:07 | 53.57395 | 9.87437 | 1498 ft | 170 kts | 52° |
| 2026-04-30 21:07 | 53.58114 | 9.88882 | 1304 ft | 151 kts | 52° |
| 2026-04-30 21:07 | 53.58756 | 9.90170 | 1071 ft | 140 kts | 52° |
| 2026-04-30 21:08 | 53.59365 | 9.91404 | 866 ft | 135 kts | 52° |
| 2026-04-30 21:08 | 53.59958 | 9.92611 | 691 ft | 133 kts | 51° |
| 2026-04-30 21:08 | 53.60548 | 9.93805 | 530 ft | 132 kts | 51° |
| 2026-04-30 21:08 | 53.61135 | 9.94985 | 356 ft | 132 kts | 51° |
| 2026-04-30 21:09 | 53.61720 | 9.96161 | 171 ft | 130 kts | 50° |
| 2026-04-30 21:09 | 53.62296 | 9.97318 | 53 ft | 125 kts | 50° |
| 2026-04-30 21:09 | 53.62762 | 9.98268 | 50 ft | 79 kts | 50° |
| 2026-04-30 21:09 | 53.63067 | 9.98884 | 50 ft | 61 kts | 50° |
| 2026-04-30 21:10 | 53.63268 | 9.99309 | 52 ft | 22 kts | 64° |
| 2026-04-30 21:10 | 53.63287 | 9.99556 | 50 ft | 20 kts | 102° |
| 2026-04-30 21:10 | 53.63278 | 9.99644 | 50 ft | 0 kts | 98° |
| 2026-04-30 21:11 | 53.63278 | 9.99646 | 50 ft | 1 kts | 98° |
| 2026-04-30 21:11 | 53.63276 | 9.99666 | 50 ft | 1 kts | 98° |
| 2026-04-30 21:12 | 53.63275 | 9.99674 | 50 ft | 0 kts | 98° |
| 2026-04-30 21:12 | 53.63275 | 9.99682 | 50 ft | 3 kts | 98° |
| 2026-04-30 21:12 | 53.63281 | 9.99754 | 50 ft | 8 kts | 68° |
| 2026-04-30 21:13 | 53.63318 | 9.99842 | 50 ft | 11 kts | 51° |
| 2026-04-30 21:13 | 53.63369 | 9.99945 | 50 ft | 12 kts | 50° |
| 2026-04-30 21:13 | 53.63423 | 10.00055 | 51 ft | 12 kts | 50° |
| 2026-04-30 21:13 | 53.63446 | 10.00162 | 51 ft | 8 kts | 88° |
| 2026-04-30 21:14 | 53.63448 | 10.00237 | 51 ft | 4 kts | 88° |
| 2026-04-30 21:14 | 53.63448 | 10.00274 | 51 ft | 3 kts | 88° |
| 2026-04-30 21:14 | 53.63449 | 10.00295 | 51 ft | 1 kts | 88° |
| 2026-04-30 21:14 | 53.63449 | 10.00305 | 51 ft | 1 kts | 88° |
| 2026-04-30 21:15 | 53.63449 | 10.00309 | 51 ft | 0 kts | 88° |
| 2026-04-30 21:15 | 53.63449 | 10.00312 | 51 ft | 0 kts | 88° |